Time;durP1;ratioP1;P1;durP2;ratioP2;P2;SDS_P1;SDS_P2;PMS_P1;PMS_P2;Temp;Humidity;BMP_temperature;BMP_pressure;BME280_temperature;BME280_humidity;BME280_pressure;Samples;Min_cycle;Max_cycle;Signal;HPM_P1;HPM_P2
2019/05/19 00:00:30;;;;;;;7.1;6.5;;;;;;;11.29;83.97266;947.303;;;;
2019/05/19 00:02:53;;;;;;;7.5;6.8;;;;;;;11.28;84.24805;947.3;;;;
2019/05/19 00:05:18;;;;;;;7;6.4;;;;;;;11.21;84.41895;947.2913;;;;
2019/05/19 00:07:59;;;;;;;7.5;6.9;;;;;;;11.16;84.39844;947.307;;;;
2019/05/19 00:10:24;;;;;;;7.7;6.7;;;;;;;11.08;84.86816;947.2389;;;;
2019/05/19 00:12:51;;;;;;;7.6;6.9;;;;;;;11.05;85.00195;947.29;;;;
2019/05/19 00:15:16;;;;;;;7.5;6.8;;;;;;;10.97;85.22852;947.2839;;;;
2019/05/19 00:17:43;;;;;;;7.7;7;;;;;;;10.92;85.33301;947.277;;;;
2019/05/19 00:20:10;;;;;;;8.7;7.8;;;;;;;10.91;85.30859;947.2396;;;;
2019/05/19 00:22:36;;;;;;;8.5;7.6;;;;;;;10.89;85.41895;947.2473;;;;
2019/05/19 00:25:01;;;;;;;9.1;8.3;;;;;;;10.81;85.93555;947.2266;;;;
2019/05/19 00:27:26;;;;;;;8.7;7.9;;;;;;;10.69;86.49902;947.1909;;;;
2019/05/19 00:29:51;;;;;;;8.5;7.7;;;;;;;10.65;86.75781;947.2134;;;;
2019/05/19 00:32:16;;;;;;;8.6;7.8;;;;;;;10.72;86.33203;947.1831;;;;
2019/05/19 00:34:42;;;;;;;9;8.1;;;;;;;10.62;86.96973;947.166;;;;
2019/05/19 00:37:07;;;;;;;8.5;7.7;;;;;;;10.82;85.93555;947.1705;;;;
2019/05/19 00:39:32;;;;;;;9.9;8.6;;;;;;;10.82;85.93555;947.2089;;;;
2019/05/19 00:41:57;;;;;;;9.6;8.4;;;;;;;10.65;87.05762;947.1661;;;;
2019/05/19 00:44:23;;;;;;;10.2;9.1;;;;;;;;;;;;;
2019/05/19 00:46:48;;;;;;;10.3;9.2;;;;;;;;;;;;;
2019/05/19 00:49:13;;;;;;;10.4;9.4;;;;;;;;;;;;;
2019/05/19 00:51:38;;;;;;;10.7;9.6;;;;;;;;;;;;;
2019/05/19 00:54:04;;;;;;;10.3;9.3;;;;;;;;;;;;;
2019/05/19 00:56:29;;;;;;;11.7;8.6;;;;;;;;;;;;;
2019/05/19 00:58:54;;;;;;;8.9;8.1;;;;;;;;;;;;;
2019/05/19 01:01:19;;;;;;;9;8;;;;;;;;;;;;;
2019/05/19 01:03:45;;;;;;;8.4;7.6;;;;;;;;;;;;;
2019/05/19 01:06:10;;;;;;;9.2;8.3;;;;;;;;;;;;;
2019/05/19 01:08:36;;;;;;;8.1;7.4;;;;;;;;;;;;;
2019/05/19 01:11:03;;;;;;;9.2;8.3;;;;;;;;;;;;;
2019/05/19 01:13:28;;;;;;;8.7;7.8;;;;;;;;;;;;;
2019/05/19 01:15:53;;;;;;;8.6;7.8;;;;;;;;;;;;;
2019/05/19 01:18:19;;;;;;;8.3;7.5;;;;;;;;;;;;;
2019/05/19 01:20:44;;;;;;;9;8.1;;;;;;;;;;;;;
2019/05/19 01:23:09;;;;;;;10.3;9.2;;;;;;;;;;;;;
2019/05/19 01:25:34;;;;;;;10.3;9.4;;;;;;;;;;;;;
2019/05/19 01:27:59;;;;;;;11.6;10.5;;;;;;;;;;;;;
2019/05/19 01:30:25;;;;;;;11.2;10;;;;;;;;;;;;;
2019/05/19 01:32:50;;;;;;;12;10.8;;;;;;;;;;;;;
2019/05/19 01:35:15;;;;;;;11.9;10.8;;;;;;;;;;;;;
2019/05/19 01:37:41;;;;;;;11.2;10.1;;;;;;;;;;;;;
2019/05/19 01:40:06;;;;;;;11.3;10.2;;;;;;;;;;;;;
2019/05/19 01:42:31;;;;;;;12.6;10.3;;;;;;;;;;;;;
2019/05/19 01:44:56;;;;;;;11;9.9;;;;;;;;;;;;;
2019/05/19 01:47:22;;;;;;;11.9;10.8;;;;;;;;;;;;;
2019/05/19 01:49:47;;;;;;;11.2;10.1;;;;;;;;;;;;;
2019/05/19 01:52:12;;;;;;;11.4;10.3;;;;;;;;;;;;;
2019/05/19 01:54:37;;;;;;;10.9;9.9;;;;;;;;;;;;;
2019/05/19 01:57:02;;;;;;;10.3;9.3;;;;;;;;;;;;;
2019/05/19 01:59:28;;;;;;;12.1;10;;;;;;;;;;;;;
2019/05/19 02:01:53;;;;;;;11.1;9.9;;;;;;;;;;;;;
2019/05/19 02:04:19;;;;;;;11.2;10;;;;;;;;;;;;;
2019/05/19 02:06:44;;;;;;;11.6;10.5;;;;;;;;;;;;;
2019/05/19 02:09:10;;;;;;;12;10.8;;;;;;;;;;;;;
2019/05/19 02:11:35;;;;;;;11;10;;;;;;;;;;;;;
2019/05/19 02:14:00;;;;;;;11.2;10.2;;;;;;;;;;;;;
2019/05/19 02:16:25;;;;;;;11.8;10.7;;;;;;;;;;;;;
2019/05/19 02:18:50;;;;;;;12;10.8;;;;;;;;;;;;;
2019/05/19 02:21:15;;;;;;;13.4;12.1;;;;;;;;;;;;;
2019/05/19 02:23:41;;;;;;;12.2;11.1;;;;;;;;;;;;;
2019/05/19 02:26:06;;;;;;;11.9;10.8;;;;;;;;;;;;;
2019/05/19 02:28:31;;;;;;;14.1;12.7;;;;;;;;;;;;;
2019/05/19 02:30:56;;;;;;;15.9;14.3;;;;;;;;;;;;;
2019/05/19 02:33:22;;;;;;;13.2;12;;;;;;;;;;;;;
2019/05/19 02:35:47;;;;;;;13;11.8;;;;;;;;;;;;;
2019/05/19 02:38:12;;;;;;;13.8;12.4;;;;;;;;;;;;;
2019/05/19 02:40:37;;;;;;;12.7;11.5;;;;;;;;;;;;;
2019/05/19 02:43:02;;;;;;;12.4;11.2;;;;;;;;;;;;;
2019/05/19 02:45:27;;;;;;;11.7;10.6;;;;;;;;;;;;;
2019/05/19 02:47:52;;;;;;;13.6;12.4;;;;;;;;;;;;;
2019/05/19 02:50:17;;;;;;;14;12.7;;;;;;;;;;;;;
2019/05/19 02:52:42;;;;;;;12.5;11.3;;;;;;;;;;;;;
2019/05/19 02:55:07;;;;;;;12.6;11.5;;;;;;;;;;;;;
2019/05/19 02:57:32;;;;;;;14;12.7;;;;;;;;;;;;;
2019/05/19 02:59:58;;;;;;;13;11.8;;;;;;;;;;;;;
2019/05/19 03:02:23;;;;;;;15.3;13.9;;;;;;;;;;;;;
2019/05/19 03:04:49;;;;;;;14;12.7;;;;;;;;;;;;;
2019/05/19 03:07:15;;;;;;;13.2;12;;;;;;;;;;;;;
2019/05/19 03:09:40;;;;;;;13;11.9;;;;;;;;;;;;;
2019/05/19 03:12:06;;;;;;;13.4;12.2;;;;;;;;;;;;;
2019/05/19 03:14:31;;;;;;;14.6;13.3;;;;;;;;;;;;;
2019/05/19 03:16:56;;;;;;;14;12.8;;;;;;;;;;;;;
2019/05/19 03:19:21;;;;;;;14.4;13.1;;;;;;;;;;;;;
2019/05/19 03:21:46;;;;;;;16.7;15.2;;;;;;;;;;;;;
2019/05/19 03:24:11;;;;;;;17.1;15.5;;;;;;;;;;;;;
2019/05/19 03:26:37;;;;;;;15.5;14;;;;;;;;;;;;;
2019/05/19 03:29:06;;;;;;;14.3;13;;;;;;;;;;;;;
2019/05/19 03:31:38;;;;;;;16.4;15;;;;;;;;;;;;;
2019/05/19 03:33:56;;;;;;;17.6;16;;;;;;;;;;;;;
2019/05/19 03:36:21;;;;;;;16.9;15.4;;;;;;;;;;;;;
2019/05/19 03:38:46;;;;;;;16.4;14.9;;;;;;;;;;;;;
2019/05/19 03:41:11;;;;;;;18.9;17.2;;;;;;;;;;;;;
2019/05/19 03:43:36;;;;;;;17.3;15.7;;;;;;;;;;;;;
2019/05/19 03:46:01;;;;;;;20.5;18.6;;;;;;;;;;;;;
2019/05/19 03:48:26;;;;;;;17.9;16.3;;;;;;;;;;;;;
2019/05/19 03:50:51;;;;;;;15.7;14.3;;;;;;;;;;;;;
2019/05/19 03:53:19;;;;;;;15.9;14.5;;;;;;;;;;;;;
2019/05/19 03:55:44;;;;;;;17.7;16.1;;;;;;;;;;;;;
2019/05/19 03:58:11;;;;;;;16.2;14.8;;;;;;;;;;;;;
2019/05/19 04:02:28;;;;;;;16.8;15.3;;;;;;;8.93;96.17188;947.5714;;;;
2019/05/19 04:04:53;;;;;;;17.9;16.2;;;;;;;8.99;95.7373;947.6536;;;;
2019/05/19 04:07:18;;;;;;;16.2;14.8;;;;;;;9.14;95.21875;947.6186;;;;
2019/05/19 04:09:43;;;;;;;16.7;15.2;;;;;;;9.21;95.05078;947.5938;;;;
2019/05/19 04:12:08;;;;;;;15.9;14.5;;;;;;;9.31;94.68262;947.6153;;;;
2019/05/19 04:14:34;;;;;;;15.1;13.8;;;;;;;9.36;94.55273;947.6353;;;;
2019/05/19 04:16:59;;;;;;;15.1;13.8;;;;;;;9.44;94.23633;947.6006;;;;
2019/05/19 04:19:24;;;;;;;14.7;13.4;;;;;;;9.56;93.74609;947.5683;;;;
2019/05/19 04:21:49;;;;;;;14.3;13;;;;;;;9.6;93.54883;947.5418;;;;
2019/05/19 04:24:15;;;;;;;14.5;13.2;;;;;;;9.66;93.37598;947.5435;;;;
2019/05/19 04:26:48;;;;;;;13.8;12.6;;;;;;;9.69;93.27832;947.5955;;;;
2019/05/19 04:29:13;;;;;;;14.5;13.2;;;;;;;9.77;92.91504;947.6708;;;;
2019/05/19 04:31:38;;;;;;;14.2;12.9;;;;;;;9.81;92.91504;947.738;;;;
2019/05/19 04:34:04;;;;;;;15.1;13.7;;;;;;;9.8;92.3125;947.7822;;;;
2019/05/19 04:36:29;;;;;;;16.5;15;;;;;;;9.71;92.85742;947.8061;;;;
2019/05/19 04:38:54;;;;;;;14.3;13;;;;;;;9.83;92.46582;947.8342;;;;
2019/05/19 04:41:22;;;;;;;14;12.8;;;;;;;9.99;91.78809;947.802;;;;
2019/05/19 04:43:47;;;;;;;15.6;14.2;;;;;;;9.98;92.24707;947.7725;;;;
2019/05/19 04:46:12;;;;;;;15.3;14;;;;;;;10.08;92.39453;947.7358;;;;
2019/05/19 04:48:39;;;;;;;15.1;13.6;;;;;;;10.16;91.89355;947.747;;;;
2019/05/19 04:51:04;;;;;;;13.3;12.1;;;;;;;10.38;91.21191;947.7672;;;;
2019/05/19 04:53:30;;;;;;;13.2;12;;;;;;;10.48;91.10547;947.7332;;;;
2019/05/19 04:55:55;;;;;;;14.3;12.9;;;;;;;10.58;90.38965;947.759;;;;
2019/05/19 04:58:20;;;;;;;16.3;14.7;;;;;;;10.38;91.74219;947.7928;;;;
2019/05/19 05:00:46;;;;;;;16;14.5;;;;;;;10.62;90.80176;947.8606;;;;
2019/05/19 05:03:11;;;;;;;14.5;13.2;;;;;;;10.77;90.20996;947.949;;;;
2019/05/19 05:05:36;;;;;;;15.3;14;;;;;;;10.79;90.04004;947.9204;;;;
2019/05/19 05:08:02;;;;;;;17.4;15.9;;;;;;;10.74;90.42383;947.8887;;;;
2019/05/19 05:10:27;;;;;;;18.3;16.6;;;;;;;10.97;90.14844;947.7831;;;;
2019/05/19 05:12:52;;;;;;;17.9;16.3;;;;;;;10.95;89.86621;947.8197;;;;
2019/05/19 05:15:17;;;;;;;16.2;14.8;;;;;;;10.96;90.00781;947.7792;;;;
2019/05/19 05:17:43;;;;;;;17.5;15.9;;;;;;;10.97;89.80176;947.8845;;;;
2019/05/19 05:20:08;;;;;;;19.9;18.1;;;;;;;10.9;91.14844;947.9199;;;;
2019/05/19 05:22:36;;;;;;;19.8;18;;;;;;;11;90.58203;947.9625;;;;
2019/05/19 05:25:01;;;;;;;16.5;15;;;;;;;;;;;;;
2019/05/19 05:27:26;;;;;;;17.9;16.4;;;;;;;;;;;;;
2019/05/19 05:29:51;;;;;;;21.1;19.2;;;;;;;;;;;;;
2019/05/19 05:32:16;;;;;;;19.3;17.6;;;;;;;;;;;;;
2019/05/19 05:34:41;;;;;;;19.9;18.1;;;;;;;;;;;;;
2019/05/19 05:37:06;;;;;;;19.4;17.6;;;;;;;;;;;;;
2019/05/19 05:39:31;;;;;;;18.8;17.1;;;;;;;;;;;;;
2019/05/19 05:41:57;;;;;;;16.2;14.7;;;;;;;;;;;;;
2019/05/19 05:44:22;;;;;;;19.2;17.5;;;;;;;;;;;;;
2019/05/19 05:46:49;;;;;;;17.9;16.2;;;;;;;;;;;;;
2019/05/19 05:49:14;;;;;;;14.6;13.4;;;;;;;;;;;;;
2019/05/19 05:51:40;;;;;;;17.1;15.5;;;;;;;;;;;;;
2019/05/19 05:54:05;;;;;;;17.3;15.7;;;;;;;;;;;;;
2019/05/19 05:56:30;;;;;;;15.5;14.1;;;;;;;;;;;;;
2019/05/19 05:58:55;;;;;;;15.6;14.1;;;;;;;;;;;;;
2019/05/19 06:01:20;;;;;;;15.8;14.3;;;;;;;;;;;;;
2019/05/19 06:03:45;;;;;;;15.4;14.1;;;;;;;;;;;;;
2019/05/19 06:06:11;;;;;;;14.5;13.3;;;;;;;;;;;;;
2019/05/19 06:08:37;;;;;;;14.2;13;;;;;;;;;;;;;
2019/05/19 06:11:02;;;;;;;14.4;13.1;;;;;;;;;;;;;
2019/05/19 06:13:28;;;;;;;15.5;14.1;;;;;;;;;;;;;
2019/05/19 06:15:53;;;;;;;13.9;12.7;;;;;;;;;;;;;
2019/05/19 06:18:19;;;;;;;14.7;13.2;;;;;;;;;;;;;
2019/05/19 06:20:45;;;;;;;13.6;12.4;;;;;;;;;;;;;
2019/05/19 06:23:10;;;;;;;12.9;11.8;;;;;;;;;;;;;
2019/05/19 06:25:35;;;;;;;12.9;11.8;;;;;;;;;;;;;
2019/05/19 06:28:00;;;;;;;12.3;11.2;;;;;;;;;;;;;
2019/05/19 06:30:25;;;;;;;13;11.8;;;;;;;;;;;;;
2019/05/19 06:32:51;;;;;;;12.5;11.4;;;;;;;;;;;;;
2019/05/19 06:35:16;;;;;;;11.5;10.5;;;;;;;;;;;;;
2019/05/19 06:37:43;;;;;;;11.1;10.1;;;;;;;;;;;;;
2019/05/19 06:40:08;;;;;;;11.7;10.5;;;;;;;;;;;;;
2019/05/19 06:42:34;;;;;;;10.4;9.5;;;;;;;;;;;;;
2019/05/19 06:44:59;;;;;;;11.7;10.6;;;;;;;;;;;;;
2019/05/19 06:47:24;;;;;;;11.1;10;;;;;;;;;;;;;
2019/05/19 06:49:49;;;;;;;10.1;9.2;;;;;;;;;;;;;
2019/05/19 06:52:14;;;;;;;10.5;9.6;;;;;;;;;;;;;
2019/05/19 06:54:39;;;;;;;11;9.9;;;;;;;;;;;;;
2019/05/19 06:57:04;;;;;;;10.6;9.6;;;;;;;;;;;;;
2019/05/19 06:59:29;;;;;;;11.2;10.2;;;;;;;;;;;;;
2019/05/19 07:01:55;;;;;;;10.4;9.5;;;;;;;;;;;;;
2019/05/19 07:04:20;;;;;;;11;9.9;;;;;;;;;;;;;
2019/05/19 07:06:45;;;;;;;10.2;9.3;;;;;;;;;;;;;
2019/05/19 07:09:10;;;;;;;10.1;9.2;;;;;;;;;;;;;
2019/05/19 07:11:35;;;;;;;11;9.9;;;;;;;;;;;;;
2019/05/19 07:14:00;;;;;;;10.2;9.2;;;;;;;;;;;;;
2019/05/19 07:16:25;;;;;;;10.8;9.8;;;;;;;;;;;;;
2019/05/19 07:18:51;;;;;;;11.1;10.1;;;;;;;;;;;;;
2019/05/19 07:21:17;;;;;;;12;10.9;;;;;;;;;;;;;
2019/05/19 07:23:42;;;;;;;11;10;;;;;;;;;;;;;
2019/05/19 07:26:07;;;;;;;11.2;10.1;;;;;;;;;;;;;
2019/05/19 07:28:32;;;;;;;10.6;9.6;;;;;;;;;;;;;
2019/05/19 07:30:57;;;;;;;10.6;9.6;;;;;;;;;;;;;
2019/05/19 07:33:23;;;;;;;11.6;10.4;;;;;;;;;;;;;
2019/05/19 07:35:48;;;;;;;11.3;10.2;;;;;;;;;;;;;
2019/05/19 07:38:13;;;;;;;10.8;9.7;;;;;;;;;;;;;
2019/05/19 07:40:38;;;;;;;10.8;9.8;;;;;;;;;;;;;
2019/05/19 07:43:04;;;;;;;12.1;10.9;;;;;;;;;;;;;
2019/05/19 07:45:29;;;;;;;11.5;10.5;;;;;;;;;;;;;
2019/05/19 07:47:54;;;;;;;12.5;11.3;;;;;;;;;;;;;
2019/05/19 07:50:19;;;;;;;11.4;10.2;;;;;;;;;;;;;
2019/05/19 07:52:44;;;;;;;11.4;10.3;;;;;;;;;;;;;
2019/05/19 07:55:10;;;;;;;10.7;9.7;;;;;;;;;;;;;
2019/05/19 07:57:35;;;;;;;11.7;10.5;;;;;;;;;;;;;
2019/05/19 08:00:01;;;;;;;12;10.8;;;;;;;;;;;;;
2019/05/19 08:02:25;;;;;;;12.6;11.4;;;;;;;;;;;;;
2019/05/19 08:04:51;;;;;;;11.2;10.2;;;;;;;;;;;;;
2019/05/19 08:07:16;;;;;;;10.5;9.6;;;;;;;;;;;;;
2019/05/19 08:09:41;;;;;;;12.3;11.1;;;;;;;;;;;;;
2019/05/19 08:12:07;;;;;;;11.7;10.6;;;;;;;;;;;;;
2019/05/19 08:14:32;;;;;;;12.1;10.9;;;;;;;;;;;;;
2019/05/19 08:16:57;;;;;;;12.5;11.3;;;;;;;;;;;;;
2019/05/19 08:19:22;;;;;;;13;11.8;;;;;;;;;;;;;
2019/05/19 08:21:48;;;;;;;12.5;11.3;;;;;;;;;;;;;
2019/05/19 08:24:13;;;;;;;12.2;11.1;;;;;;;;;;;;;
2019/05/19 08:26:41;;;;;;;11.4;10.4;;;;;;;;;;;;;
2019/05/19 08:29:06;;;;;;;12;10.8;;;;;;;;;;;;;
2019/05/19 08:31:31;;;;;;;12.7;11.5;;;;;;;;;;;;;
2019/05/19 08:33:56;;;;;;;12;10.9;;;;;;;;;;;;;
2019/05/19 08:36:21;;;;;;;12.4;11.2;;;;;;;;;;;;;
2019/05/19 08:38:46;;;;;;;12.4;11.3;;;;;;;;;;;;;
2019/05/19 08:41:13;;;;;;;12.9;11.7;;;;;;;;;;;;;
2019/05/19 08:43:38;;;;;;;13.1;11.9;;;;;;;;;;;;;
2019/05/19 08:46:04;;;;;;;13.5;12.3;;;;;;;;;;;;;
2019/05/19 08:48:29;;;;;;;13.7;12.4;;;;;;;;;;;;;
2019/05/19 08:50:55;;;;;;;12.6;11.4;;;;;;;;;;;;;
2019/05/19 08:53:20;;;;;;;11.9;10.8;;;;;;;;;;;;;
2019/05/19 08:55:45;;;;;;;12.3;11.1;;;;;;;;;;;;;
2019/05/19 08:58:11;;;;;;;12.2;11.1;;;;;;;;;;;;;
2019/05/19 09:00:36;;;;;;;11.8;10.7;;;;;;;;;;;;;
2019/05/19 09:03:01;;;;;;;12.5;11.4;;;;;;;;;;;;;
2019/05/19 09:05:26;;;;;;;11.9;10.7;;;;;;;;;;;;;
2019/05/19 09:07:53;;;;;;;11.6;10.5;;;;;;;;;;;;;
2019/05/19 09:10:18;;;;;;;12.6;11.4;;;;;;;;;;;;;
2019/05/19 09:12:44;;;;;;;11.5;10.5;;;;;;;;;;;;;
2019/05/19 09:15:09;;;;;;;12.6;11.4;;;;;;;;;;;;;
2019/05/19 09:17:34;;;;;;;11.7;10.6;;;;;;;;;;;;;
2019/05/19 09:19:59;;;;;;;11.2;10.1;;;;;;;;;;;;;
2019/05/19 09:22:24;;;;;;;13.3;12.1;;;;;;;;;;;;;
2019/05/19 09:24:49;;;;;;;11.9;10.8;;;;;;;;;;;;;
2019/05/19 09:27:14;;;;;;;12.2;10.2;;;;;;;;;;;;;
2019/05/19 09:29:39;;;;;;;12.8;11.7;;;;;;;;;;;;;
2019/05/19 09:32:05;;;;;;;11.8;10.7;;;;;;;;;;;;;
2019/05/19 09:34:30;;;;;;;11.9;10.8;;;;;;;;;;;;;
2019/05/19 09:36:55;;;;;;;12.2;11.1;;;;;;;;;;;;;
2019/05/19 09:39:20;;;;;;;11.3;10.3;;;;;;;;;;;;;
2019/05/19 09:41:45;;;;;;;10.7;9.8;;;;;;;;;;;;;
2019/05/19 09:44:10;;;;;;;11.5;10.4;;;;;;;;;;;;;
2019/05/19 09:46:35;;;;;;;11.6;10.5;;;;;;;;;;;;;
2019/05/19 09:51:25;;;;;;;11.6;10.6;;;;;;;;;;;;;
2019/05/19 09:53:51;;;;;;;11.7;10.6;;;;;;;;;;;;;
2019/05/19 09:56:16;;;;;;;10.7;9.7;;;;;;;;;;;;;
2019/05/19 09:58:41;;;;;;;11.2;10.2;;;;;;;;;;;;;
2019/05/19 10:01:07;;;;;;;10.3;9.4;;;;;;;;;;;;;
2019/05/19 10:03:32;;;;;;;11.4;10.3;;;;;;;;;;;;;
2019/05/19 10:05:58;;;;;;;10.3;9.4;;;;;;;;;;;;;
2019/05/19 10:08:24;;;;;;;11;10;;;;;;;;;;;;;
2019/05/19 10:10:56;;;;;;;10.1;9.2;;;;;;;;;;;;;
2019/05/19 10:13:13;;;;;;;10.5;9.5;;;;;;;;;;;;;
2019/05/19 10:15:39;;;;;;;11.6;9.5;;;;;;;;;;;;;
2019/05/19 10:18:04;;;;;;;9.2;8.3;;;;;;;;;;;;;
2019/05/19 10:20:29;;;;;;;8.7;7.9;;;;;;;;;;;;;
2019/05/19 10:22:54;;;;;;;9.3;8.5;;;;;;;;;;;;;
2019/05/19 10:25:19;;;;;;;10.7;9.8;;;;;;;;;;;;;
2019/05/19 10:27:44;;;;;;;10.1;9.1;;;;;;;;;;;;;
2019/05/19 10:30:09;;;;;;;9.8;8.9;;;;;;;;;;;;;
2019/05/19 10:32:35;;;;;;;9;8.2;;;;;;;;;;;;;
2019/05/19 10:35:00;;;;;;;9.4;8.4;;;;;;;;;;;;;
2019/05/19 10:37:25;;;;;;;9.1;8.2;;;;;;;;;;;;;
2019/05/19 10:39:51;;;;;;;8.6;7.8;;;;;;;;;;;;;
2019/05/19 10:42:16;;;;;;;10.1;9.1;;;;;;;;;;;;;
2019/05/19 10:44:41;;;;;;;9.4;8.5;;;;;;;;;;;;;
2019/05/19 10:47:06;;;;;;;9.5;8.5;;;;;;;;;;;;;
2019/05/19 10:49:31;;;;;;;9.6;8.8;;;;;;;;;;;;;
2019/05/19 10:51:56;;;;;;;7.9;7.2;;;;;;;;;;;;;
2019/05/19 10:54:21;;;;;;;8.4;7.5;;;;;;;;;;;;;
2019/05/19 10:56:46;;;;;;;9.2;8;;;;;;;;;;;;;
2019/05/19 10:59:11;;;;;;;8.2;7.4;;;;;;;;;;;;;
2019/05/19 11:01:37;;;;;;;10.2;7.2;;;;;;;;;;;;;
2019/05/19 11:04:02;;;;;;;7.7;7;;;;;;;;;;;;;
2019/05/19 11:06:27;;;;;;;8.4;7.5;;;;;;;;;;;;;
2019/05/19 11:08:52;;;;;;;9.2;8.3;;;;;;;;;;;;;
2019/05/19 11:11:17;;;;;;;9.5;8.6;;;;;;;;;;;;;
2019/05/19 11:13:42;;;;;;;7.8;7.1;;;;;;;;;;;;;
2019/05/19 11:16:07;;;;;;;8.7;7.9;;;;;;;;;;;;;
2019/05/19 11:18:32;;;;;;;8.3;7.5;;;;;;;;;;;;;
2019/05/19 11:20:57;;;;;;;8;7.3;;;;;;;;;;;;;
2019/05/19 11:23:22;;;;;;;7.5;6.8;;;;;;;;;;;;;
2019/05/19 11:25:47;;;;;;;6.8;6.1;;;;;;;;;;;;;
2019/05/19 11:28:13;;;;;;;7.5;6.8;;;;;;;;;;;;;
2019/05/19 11:30:38;;;;;;;7.8;7.1;;;;;;;;;;;;;
2019/05/19 11:33:05;;;;;;;7.3;6.7;;;;;;;;;;;;;
2019/05/19 11:35:29;;;;;;;6.7;6;;;;;;;;;;;;;
2019/05/19 11:37:56;;;;;;;6.8;6.2;;;;;;;;;;;;;
2019/05/19 11:40:22;;;;;;;7.7;6.9;;;;;;;;;;;;;
2019/05/19 11:42:47;;;;;;;7.9;7.1;;;;;;;;;;;;;
2019/05/19 11:45:12;;;;;;;7.2;6.6;;;;;;;;;;;;;
2019/05/19 11:47:39;;;;;;;7;6.3;;;;;;;;;;;;;
2019/05/19 11:50:04;;;;;;;7.5;6.7;;;;;;;;;;;;;
2019/05/19 11:52:29;;;;;;;7.4;6.7;;;;;;;;;;;;;
2019/05/19 11:54:54;;;;;;;7.5;6.8;;;;;;;;;;;;;
2019/05/19 11:57:19;;;;;;;8;6.3;;;;;;;;;;;;;
2019/05/19 11:59:45;;;;;;;7;6.3;;;;;;;;;;;;;
2019/05/19 12:02:10;;;;;;;7;6.4;;;;;;;;;;;;;
2019/05/19 12:04:35;;;;;;;6;5.4;;;;;;;;;;;;;
2019/05/19 12:07:00;;;;;;;6;5.2;;;;;;;;;;;;;
2019/05/19 12:09:25;;;;;;;5.3;4.8;;;;;;;;;;;;;
2019/05/19 12:11:51;;;;;;;5.7;4.8;;;;;;;;;;;;;
2019/05/19 12:14:15;;;;;;;4.6;4;;;;;;;;;;;;;
2019/05/19 12:16:41;;;;;;;5;4.5;;;;;;;;;;;;;
2019/05/19 12:19:06;;;;;;;4.5;4.1;;;;;;;;;;;;;
2019/05/19 12:21:31;;;;;;;4.7;3.7;;;;;;;;;;;;;
2019/05/19 12:23:56;;;;;;;4.7;4.2;;;;;;;;;;;;;
2019/05/19 12:26:22;;;;;;;4.1;3.7;;;;;;;;;;;;;
2019/05/19 12:28:47;;;;;;;3.7;3.4;;;;;;;;;;;;;
2019/05/19 12:31:12;;;;;;;4.3;3.5;;;;;;;;;;;;;
2019/05/19 12:33:37;;;;;;;3.9;3.5;;;;;;;;;;;;;
2019/05/19 12:36:02;;;;;;;4;3.6;;;;;;;;;;;;;
2019/05/19 12:38:27;;;;;;;4.8;3.3;;;;;;;;;;;;;
2019/05/19 12:40:52;;;;;;;4.2;3.8;;;;;;;;;;;;;
2019/05/19 12:43:18;;;;;;;3.7;3.4;;;;;;;;;;;;;
2019/05/19 12:45:43;;;;;;;3.9;3.5;;;;;;;;;;;;;
2019/05/19 12:48:08;;;;;;;4;3.3;;;;;;;;;;;;;
2019/05/19 12:50:33;;;;;;;3.7;3.4;;;;;;;;;;;;;
2019/05/19 12:52:58;;;;;;;3.4;3.1;;;;;;;;;;;;;
2019/05/19 12:55:24;;;;;;;3.4;3.1;;;;;;;;;;;;;
2019/05/19 12:57:49;;;;;;;3.8;3.5;;;;;;;;;;;;;
2019/05/19 13:00:14;;;;;;;3.5;3.2;;;;;;;;;;;;;
2019/05/19 13:02:39;;;;;;;3.6;3.3;;;;;;;;;;;;;
2019/05/19 13:05:05;;;;;;;4.3;3.9;;;;;;;;;;;;;
2019/05/19 13:07:29;;;;;;;4.6;4.1;;;;;;;;;;;;;
2019/05/19 13:09:55;;;;;;;5.2;3.7;;;;;;;;;;;;;
2019/05/19 13:12:20;;;;;;;3.7;3.4;;;;;;;;;;;;;
2019/05/19 13:14:45;;;;;;;3.7;3;;;;;;;;;;;;;
2019/05/19 13:17:10;;;;;;;4.5;4.1;;;;;;;;;;;;;
2019/05/19 13:19:35;;;;;;;3.5;3.1;;;;;;;;;;;;;
2019/05/19 13:22:00;;;;;;;3.2;2.7;;;;;;;;;;;;;
2019/05/19 13:24:25;;;;;;;3.5;2.6;;;;;;;;;;;;;
2019/05/19 13:26:50;;;;;;;3.6;2.6;;;;;;;;;;;;;
2019/05/19 13:29:15;;;;;;;5.7;3.3;;;;;;;;;;;;;
2019/05/19 13:31:44;;;;;;;3.5;3.2;;;;;;;;;;;;;
2019/05/19 13:34:09;;;;;;;3.9;3.5;;;;;;;;;;;;;
2019/05/19 13:36:34;;;;;;;3.8;3.4;;;;;;;;;;;;;
2019/05/19 13:38:59;;;;;;;4.3;3.9;;;;;;;;;;;;;
2019/05/19 13:41:25;;;;;;;4.5;3.5;;;;;;;;;;;;;
2019/05/19 13:43:50;;;;;;;5;3.5;;;;;;;;;;;;;
2019/05/19 13:46:16;;;;;;;3.9;3;;;;;;;;;;;;;
2019/05/19 13:48:41;;;;;;;3.8;3.5;;;;;;;;;;;;;
2019/05/19 13:51:06;;;;;;;4.4;3.7;;;;;;;;;;;;;
2019/05/19 13:53:31;;;;;;;4.1;3.7;;;;;;;;;;;;;
2019/05/19 13:55:56;;;;;;;4.3;3.5;;;;;;;;;;;;;
2019/05/19 13:58:21;;;;;;;4.4;3.8;;;;;;;;;;;;;
2019/05/19 14:00:47;;;;;;;3.6;3.3;;;;;;;;;;;;;
2019/05/19 14:03:12;;;;;;;4;3.6;;;;;;;;;;;;;
2019/05/19 14:05:37;;;;;;;4.6;4.2;;;;;;;;;;;;;
2019/05/19 14:08:02;;;;;;;4.3;3.8;;;;;;;;;;;;;
2019/05/19 14:10:27;;;;;;;4.3;3.4;;;;;;;;;;;;;
2019/05/19 14:12:53;;;;;;;3.8;3.5;;;;;;;;;;;;;
2019/05/19 14:15:18;;;;;;;5.1;3.7;;;;;;;;;;;;;
2019/05/19 14:17:43;;;;;;;4.9;3.8;;;;;;;;;;;;;
2019/05/19 14:20:08;;;;;;;4.3;3.9;;;;;;;;;;;;;
2019/05/19 14:22:33;;;;;;;3.9;3.6;;;;;;;;;;;;;
2019/05/19 14:24:58;;;;;;;4;3.6;;;;;;;;;;;;;
2019/05/19 14:27:23;;;;;;;4.1;3.6;;;;;;;;;;;;;
2019/05/19 14:29:48;;;;;;;3.8;3.5;;;;;;;;;;;;;
2019/05/19 14:32:13;;;;;;;4.2;3.8;;;;;;;;;;;;;
2019/05/19 14:34:38;;;;;;;3.5;3.2;;;;;;;;;;;;;
2019/05/19 14:37:03;;;;;;;3.8;3.5;;;;;;;;;;;;;
2019/05/19 14:39:29;;;;;;;3.9;3.4;;;;;;;;;;;;;
2019/05/19 14:41:59;;;;;;;4.3;3.8;;;;;;;;;;;;;
2019/05/19 14:44:20;;;;;;;4;3.6;;;;;;;;;;;;;
2019/05/19 14:46:47;;;;;;;4.4;3.2;;;;;;;;;;;;;
2019/05/19 14:49:12;;;;;;;3.8;3.5;;;;;;;;;;;;;
2019/05/19 14:51:37;;;;;;;3.9;3.5;;;;;;;;;;;;;
2019/05/19 14:54:03;;;;;;;3.7;3.4;;;;;;;;;;;;;
2019/05/19 14:56:29;;;;;;;4.4;3.1;;;;;;;;;;;;;
2019/05/19 14:58:54;;;;;;;3.2;2.9;;;;;;;;;;;;;
2019/05/19 15:01:20;;;;;;;4.7;2.8;;;;;;;;;;;;;
2019/05/19 15:03:45;;;;;;;2.9;2.3;;;;;;;;;;;;;
2019/05/19 15:06:10;;;;;;;3.2;2.6;;;;;;;;;;;;;
2019/05/19 15:08:35;;;;;;;2.9;2.6;;;;;;;;;;;;;
2019/05/19 15:11:00;;;;;;;3.3;2.8;;;;;;;;;;;;;
2019/05/19 15:13:25;;;;;;;4.6;3.1;;;;;;;;;;;;;
2019/05/19 15:15:51;;;;;;;3.3;3;;;;;;;;;;;;;
2019/05/19 15:18:16;;;;;;;3.3;3;;;;;;;;;;;;;
2019/05/19 15:20:41;;;;;;;3.5;2.9;;;;;;;;;;;;;
2019/05/19 15:23:06;;;;;;;3.5;3.2;;;;;;;;;;;;;
2019/05/19 15:25:31;;;;;;;5.1;3.3;;;;;;;;;;;;;
2019/05/19 15:27:57;;;;;;;8;3.6;;;;;;;;;;;;;
2019/05/19 15:30:22;;;;;;;8;4.6;;;;;;;;;;;;;
2019/05/19 15:32:47;;;;;;;11.6;8.4;;;;;;;;;;;;;
2019/05/19 15:35:12;;;;;;;8.5;6.2;;;;;;;;;;;;;
2019/05/19 15:37:37;;;;;;;10.8;5.5;;;;;;;;;;;;;
2019/05/19 15:41:25;;;;;;;9.5;6.5;;;;;;;17.25;73.32813;945.736;;;;
2019/05/19 15:43:51;;;;;;;10.3;7.6;;;;;;;16.47;78.77734;945.6191;;;;
2019/05/19 15:46:16;;;;;;;6.7;5.6;;;;;;;16.49;74.5459;945.5559;;;;
2019/05/19 15:48:42;;;;;;;8.2;7.4;;;;;;;16.41;81.99414;945.5714;;;;
2019/05/19 15:51:07;;;;;;;14;10.3;;;;;;;16.01;86.04492;945.5333;;;;
2019/05/19 15:53:43;;;;;;;12;10.1;;;;;;;15.89;88.49902;945.4345;;;;
2019/05/19 15:56:08;;;;;;;13.9;12.5;;;;;;;15.99;90.46973;945.4325;;;;
2019/05/19 15:58:33;;;;;;;14.9;13.3;;;;;;;15.7;91.33203;945.4242;;;;
2019/05/19 16:00:58;;;;;;;14.7;12.5;;;;;;;15.86;92.10059;945.323;;;;
2019/05/19 16:03:23;;;;;;;16.5;14.7;;;;;;;16.12;93.93164;945.3187;;;;
2019/05/19 16:05:48;;;;;;;18.3;14.9;;;;;;;16.2;92.41797;945.2642;;;;
2019/05/19 16:08:33;;;;;;;13.4;12;;;;;;;16.39;90.69141;945.282;;;;
2019/05/19 16:10:58;;;;;;;15.2;12.2;;;;;;;16.54;92.50098;945.2159;;;;
2019/05/19 16:13:23;;;;;;;12.7;11.4;;;;;;;16.45;90.44531;945.2221;;;;
2019/05/19 16:15:48;;;;;;;10.4;9.3;;;;;;;16.47;87.46973;945.2523;;;;
2019/05/19 16:18:15;;;;;;;11.6;9;;;;;;;16.53;86.3457;945.2778;;;;
2019/05/19 16:20:40;;;;;;;11.4;9.1;;;;;;;16.74;89.25586;945.2932;;;;
2019/05/19 16:23:09;;;;;;;11.1;9.6;;;;;;;17.02;83.0332;945.2634;;;;
2019/05/19 16:25:34;;;;;;;10.3;8.7;;;;;;;17.1;80.50781;945.3022;;;;
2019/05/19 16:28:00;;;;;;;11.1;9.3;;;;;;;17.23;84.38379;945.2703;;;;
2019/05/19 16:30:25;;;;;;;11.2;8.5;;;;;;;17.35;82.74609;945.3286;;;;
2019/05/19 16:32:51;;;;;;;9.4;7.7;;;;;;;17.27;80.97266;945.2761;;;;
2019/05/19 16:35:16;;;;;;;10.3;9.2;;;;;;;17.13;85.84473;945.2587;;;;
2019/05/19 16:37:43;;;;;;;8.5;7.6;;;;;;;17.18;83.2998;945.2813;;;;
2019/05/19 16:40:11;;;;;;;9.3;8.2;;;;;;;17.17;86.36523;945.3223;;;;
2019/05/19 16:42:34;;;;;;;9;8.1;;;;;;;17.11;86.34473;945.2919;;;;
2019/05/19 16:44:59;;;;;;;8;7;;;;;;;17.09;83.3291;945.3564;;;;
2019/05/19 16:47:24;;;;;;;9.9;7.7;;;;;;;16.95;86.22949;945.3089;;;;
2019/05/19 16:49:51;;;;;;;9.4;8.5;;;;;;;16.81;88.36719;945.3817;;;;
2019/05/19 16:52:16;;;;;;;8.5;7.7;;;;;;;16.67;88.58594;945.4504;;;;
2019/05/19 16:54:44;;;;;;;5.6;5;;;;;;;16.93;78.16895;945.416;;;;
2019/05/19 16:57:07;;;;;;;6.2;5.6;;;;;;;17;77.53711;945.4133;;;;
2019/05/19 16:59:33;;;;;;;6.1;5.4;;;;;;;16.8;76.63672;945.4825;;;;
2019/05/19 17:01:58;;;;;;;8.4;5.7;;;;;;;16.85;76.3877;945.5309;;;;
2019/05/19 17:04:23;;;;;;;6.2;5.6;;;;;;;16.78;77.52148;945.5378;;;;
2019/05/19 17:06:49;;;;;;;7;5.9;;;;;;;16.77;76.56152;945.5388;;;;
2019/05/19 17:09:14;;;;;;;7.8;7.1;;;;;;;16.6;81.23535;945.478;;;;
2019/05/19 17:11:40;;;;;;;7.6;6.9;;;;;;;16.48;79.22559;945.565;;;;
2019/05/19 17:14:05;;;;;;;7.8;7.1;;;;;;;16.44;79.39063;945.5371;;;;
2019/05/19 17:16:33;;;;;;;9.3;8.2;;;;;;;16.35;80.96484;945.4568;;;;
2019/05/19 17:18:58;;;;;;;9.5;8.1;;;;;;;16.3;82.03223;945.5115;;;;
2019/05/19 17:21:23;;;;;;;8.7;7.8;;;;;;;16.51;77.61621;945.5345;;;;
2019/05/19 17:23:48;;;;;;;9.7;7.2;;;;;;;16.7;76.01074;945.5156;;;;
2019/05/19 17:26:14;;;;;;;8.7;7.3;;;;;;;16.72;76.59863;945.5338;;;;
2019/05/19 17:28:39;;;;;;;7.8;7;;;;;;;16.74;73.86523;945.5901;;;;
2019/05/19 17:31:09;;;;;;;8.2;7.3;;;;;;;16.73;76.33105;945.6609;;;;
2019/05/19 17:33:34;;;;;;;9.5;7.9;;;;;;;16.71;76.48047;945.7585;;;;
2019/05/19 17:35:59;;;;;;;8.8;7.8;;;;;;;16.53;78.09863;945.7388;;;;
2019/05/19 17:38:24;;;;;;;7.8;6.9;;;;;;;16.48;76.64063;945.7974;;;;
2019/05/19 17:40:49;;;;;;;7.4;6.3;;;;;;;16.43;77.21387;945.8494;;;;
2019/05/19 17:43:14;;;;;;;7;6.3;;;;;;;16.47;75.40723;945.8473;;;;
2019/05/19 17:45:40;;;;;;;7.9;6.9;;;;;;;16.49;74.88574;945.8478;;;;
2019/05/19 17:48:05;;;;;;;6.8;5.9;;;;;;;16.52;72.17773;945.8343;;;;
2019/05/19 17:50:30;;;;;;;7.1;6.4;;;;;;;16.55;73.18652;945.801;;;;
2019/05/19 17:52:55;;;;;;;8.5;6.5;;;;;;;16.48;75.21289;945.8361;;;;
2019/05/19 17:55:21;;;;;;;9;6.9;;;;;;;16.4;75.13965;945.8965;;;;
2019/05/19 17:57:46;;;;;;;7.6;6.7;;;;;;;16.33;75.7002;945.8463;;;;
2019/05/19 18:00:11;;;;;;;7;6.3;;;;;;;16.32;74.84473;945.8745;;;;
2019/05/19 18:02:37;;;;;;;7.9;6.9;;;;;;;16.21;77.80762;945.9294;;;;
2019/05/19 18:05:03;;;;;;;7.3;6.6;;;;;;;16.16;77.71777;945.9453;;;;
2019/05/19 18:07:29;;;;;;;7.2;6.4;;;;;;;16.12;77.63965;946.0504;;;;
2019/05/19 18:09:54;;;;;;;7.5;6.7;;;;;;;16.12;78.43457;946.1884;;;;
2019/05/19 18:12:19;;;;;;;7.9;7;;;;;;;16.06;78.01465;946.1755;;;;
2019/05/19 18:14:44;;;;;;;8.6;7.7;;;;;;;15.76;81.9209;946.2497;;;;